createdAt,value
2023-08-25T08:15:31.989Z,48.45
2023-08-25T08:17:59.980Z,41.83
2023-08-25T08:20:27.092Z,38.33
2023-08-25T08:22:53.790Z,43.75
2023-08-25T08:25:21.114Z,44.72
2023-08-25T08:27:47.963Z,45.90
2023-08-25T08:30:17.487Z,44.58
2023-08-25T08:32:44.527Z,47.72
2023-08-25T08:35:11.567Z,46.60
2023-08-25T08:37:39.306Z,42.92
2023-08-25T08:40:06.931Z,43.38
2023-08-25T08:42:35.843Z,43.85
2023-08-25T08:45:06.156Z,44.28
2023-08-25T08:47:33.504Z,46.17
2023-08-25T08:50:00.740Z,44.35
2023-08-25T08:52:29.440Z,39.17
2023-08-25T08:54:59.649Z,40.25
2023-08-25T08:57:27.034Z,41.75
2023-08-25T08:59:53.840Z,45.40
2023-08-25T09:02:23.637Z,44.65
2023-08-25T09:04:54.755Z,42.63
2023-08-25T09:07:24.468Z,40.55
2023-08-25T09:09:51.886Z,36.78
2023-08-25T09:12:20.834Z,40.25
2023-08-25T09:14:48.174Z,34.55
2023-08-25T09:17:18.336Z,35.42
2023-08-25T09:19:45.066Z,33.25
2023-08-25T09:22:14.599Z,30.40
2023-08-25T09:24:44.019Z,31.05
2023-08-25T09:27:27.635Z,32.75
2023-08-25T09:30:01.309Z,30.40
2023-08-25T09:32:29.570Z,31.20
2023-08-25T09:34:57.121Z,31.73
2023-08-25T09:37:40.690Z,22.30
2023-08-25T09:40:16.967Z,19.20
2023-08-25T09:42:43.729Z,22.42
2023-08-25T09:45:12.355Z,20.98
2023-08-25T09:47:39.321Z,18.10
2023-08-25T09:50:06.707Z,21.05
2023-08-25T09:52:37.370Z,17.70
2023-08-25T09:55:04.777Z,18.20
2023-08-25T09:57:33.175Z,12.38
2023-08-25T10:00:00.735Z,14.82
2023-08-25T10:02:29.024Z,12.38
2023-08-25T10:04:57.309Z,14.43
2023-08-25T10:07:24.333Z,13.68
2023-08-25T10:09:51.032Z,14.02
2023-08-25T10:12:20.202Z,13.40
2023-08-25T10:14:50.709Z,12.07
2023-08-25T10:17:17.992Z,10.23
2023-08-25T10:19:48.170Z,7.78
2023-08-25T10:22:15.293Z,5.30
2023-08-25T10:24:44.679Z,4.35
2023-08-25T10:27:11.632Z,4.32
2023-08-25T10:29:38.340Z,5.72
2023-08-25T10:32:05.356Z,7.10
2023-08-25T10:34:42.913Z,7.53
2023-08-25T10:37:26.853Z,7.20
2023-08-25T10:40:12.176Z,10.57
2023-08-25T10:42:38.934Z,8.63
2023-08-25T10:45:07.751Z,11.05
2023-08-25T10:47:47.071Z,11.27
2023-08-25T10:50:19.994Z,15.85
2023-08-25T10:52:51.419Z,13.65
2023-08-25T10:55:33.612Z,16.70
2023-08-25T10:58:05.081Z,13.90
2023-08-25T11:00:37.667Z,15.82
2023-08-25T11:03:04.890Z,14.95
2023-08-25T11:05:43.364Z,15.93
2023-08-25T11:08:32.463Z,21.83
2023-08-25T11:11:25.781Z,18.73
2023-08-25T11:13:54.229Z,20.90
2023-08-25T11:16:21.038Z,19.63
2023-08-25T11:18:48.511Z,19.58
2023-08-25T11:21:15.640Z,24.27
2023-08-25T11:23:44.163Z,20.98
2023-08-25T11:26:15.267Z,16.98
2023-08-25T11:28:42.064Z,18.95
2023-08-25T11:31:09.270Z,19.83
2023-08-25T11:33:36.136Z,21.98
2023-08-25T11:36:04.661Z,19.95
2023-08-25T11:38:32.375Z,20.27
2023-08-25T11:40:59.251Z,20.70
2023-08-25T11:43:34.098Z,23.45
2023-08-25T11:46:01.394Z,19.95
2023-08-25T11:48:28.282Z,22.50
2023-08-25T11:50:54.924Z,19.08
2023-08-25T11:53:21.978Z,21.48
2023-08-25T11:56:07.327Z,20.85
2023-08-25T11:58:35.645Z,20.58
2023-08-25T12:01:07.535Z,18.90
2023-08-25T12:03:39.045Z,18.70
2023-08-25T12:06:10.807Z,18.90
2023-08-25T12:08:40.373Z,17.83
2023-08-25T12:11:08.940Z,17.15
2023-08-25T12:13:40.823Z,19.83
2023-08-25T12:16:07.755Z,17.13
2023-08-25T12:18:38.400Z,15.40
2023-08-25T12:21:08.577Z,13.18
2023-08-25T12:23:42.145Z,13.60
2023-08-25T12:26:10.344Z,8.75
2023-08-25T12:28:37.095Z,10.57
2023-08-25T12:31:04.795Z,9.65
2023-08-25T12:33:32.168Z,9.15
2023-08-25T12:36:01.918Z,10.45
2023-08-25T12:38:28.862Z,13.75
2023-08-25T12:40:55.679Z,12.85
2023-08-25T12:43:22.394Z,16.13
2023-08-25T12:45:50.434Z,19.58
2023-08-25T12:48:19.244Z,17.27
2023-08-25T12:50:46.594Z,19.75
2023-08-25T12:53:14.752Z,23.52
2023-08-25T12:55:41.844Z,22.73
2023-08-25T12:58:08.575Z,24.10
2023-08-25T13:00:35.221Z,28.00
2023-08-25T13:03:03.479Z,25.60
2023-08-25T13:05:31.259Z,24.90
2023-08-25T13:07:58.281Z,24.83
2023-08-25T13:10:27.069Z,22.13
2023-08-25T13:12:53.900Z,27.52
2023-08-25T13:15:20.885Z,22.52
2023-08-25T13:17:48.768Z,23.17
2023-08-25T13:20:15.772Z,23.52
2023-08-25T13:22:42.427Z,21.90
2023-08-25T13:25:11.823Z,23.92
2023-08-25T13:27:39.153Z,26.60
2023-08-25T13:30:08.053Z,25.95
2023-08-25T13:32:34.756Z,33.28
2023-08-25T13:35:01.510Z,29.63
2023-08-25T13:37:28.203Z,34.72
2023-08-25T13:39:54.885Z,38.35
2023-08-25T13:42:21.573Z,28.95
2023-08-25T13:44:48.216Z,20.15
2023-08-25T13:47:14.884Z,22.08
2023-08-25T13:49:41.523Z,24.92
2023-08-25T13:52:08.233Z,29.92
2023-08-25T13:54:35.308Z,30.27
2023-08-25T13:57:02.466Z,30.00
2023-08-25T13:59:29.839Z,26.98
2023-08-25T14:01:56.790Z,25.30
2023-08-25T14:04:23.954Z,23.13
2023-08-25T14:06:50.761Z,29.50
2023-08-25T14:09:17.534Z,32.50
2023-08-25T14:11:44.199Z,25.27
2023-08-25T14:14:10.867Z,28.30
2023-08-25T14:16:37.564Z,30.65
2023-08-25T14:19:04.248Z,20.33
2023-08-25T14:21:30.943Z,21.10
2023-08-25T14:24:00.974Z,24.50
2023-08-25T14:26:28.273Z,23.73
2023-08-25T14:28:55.550Z,25.45
2023-08-25T14:31:22.561Z,27.15
2023-08-25T14:33:49.341Z,31.40
2023-08-25T14:36:15.983Z,30.42
2023-08-25T14:38:42.699Z,26.90
2023-08-25T14:41:09.358Z,33.53
2023-08-25T14:43:36.095Z,36.42
2023-08-25T14:46:04.809Z,33.80
2023-08-25T14:48:31.888Z,31.70
2023-08-25T14:51:00.313Z,31.20
2023-08-25T14:53:28.060Z,38.47
2023-08-25T14:55:55.019Z,39.35
2023-08-25T14:58:23.323Z,31.85
2023-08-25T15:00:55.524Z,33.80
2023-08-25T15:03:22.874Z,34.90
2023-08-25T15:05:59.046Z,34.47
2023-08-25T15:08:26.632Z,35.17
2023-08-25T15:10:53.375Z,33.17
2023-08-25T15:13:20.215Z,30.50
2023-08-25T15:15:47.737Z,28.98
2023-08-25T15:18:14.484Z,29.00
2023-08-25T15:20:41.323Z,33.70
2023-08-25T15:23:08.208Z,33.95
2023-08-25T15:25:36.615Z,28.42
2023-08-25T15:28:03.430Z,28.40
2023-08-25T15:30:30.107Z,26.10
2023-08-25T15:32:56.789Z,33.50
2023-08-25T15:35:26.989Z,42.97
2023-08-25T15:37:55.007Z,40.42
2023-08-25T15:40:23.967Z,34.45
2023-08-25T15:42:51.165Z,27.48
2023-08-25T15:45:18.339Z,28.52
2023-08-25T15:47:45.178Z,22.40
2023-08-25T15:50:12.025Z,25.80
2023-08-25T15:52:38.697Z,34.55
2023-08-25T15:55:07.841Z,27.65
2023-08-25T16:00:05.297Z,30.08
2023-08-25T16:02:32.246Z,24.52
2023-08-25T16:04:59.771Z,27.33
2023-08-25T16:07:26.536Z,27.33
2023-08-25T16:09:53.219Z,27.35
2023-08-25T16:12:19.917Z,24.88
2023-08-25T16:14:46.614Z,22.63
2023-08-25T16:17:13.333Z,22.33
2023-08-25T16:19:40.011Z,27.67
2023-08-25T16:22:06.753Z,27.27
2023-08-25T16:24:35.670Z,20.60
2023-08-25T16:27:02.450Z,17.65
2023-08-25T16:29:29.227Z,20.00
2023-08-25T16:31:55.963Z,20.40
2023-08-25T16:34:22.630Z,23.63
2023-08-25T16:36:49.275Z,25.17
2023-08-25T16:39:15.942Z,19.13
2023-08-25T16:41:42.799Z,17.63
2023-08-25T16:44:09.584Z,17.30
2023-08-25T16:46:36.299Z,17.25
2023-08-25T16:49:02.974Z,15.57
2023-08-25T16:51:29.642Z,17.73
2023-08-25T16:53:56.364Z,16.02
2023-08-25T16:56:23.251Z,15.85
2023-08-25T16:58:53.530Z,14.48
2023-08-25T17:01:20.355Z,14.98
2023-08-25T17:03:52.094Z,13.57
2023-08-25T17:06:19.884Z,11.77
2023-08-25T17:08:46.876Z,12.43
2023-08-25T17:11:14.733Z,14.70
2023-08-25T17:13:42.209Z,12.15
2023-08-25T17:16:13.864Z,13.50
2023-08-25T17:18:40.857Z,13.30
2023-08-25T17:21:07.757Z,16.88
2023-08-25T17:23:35.111Z,13.95
2023-08-25T17:26:01.843Z,15.05
2023-08-25T17:28:28.964Z,11.93
2023-08-25T17:31:09.259Z,13.57
2023-08-25T17:33:38.519Z,18.75
2023-08-25T17:36:09.289Z,11.25
2023-08-25T17:38:36.097Z,14.00
2023-08-25T17:41:06.134Z,13.35
2023-08-25T17:43:34.467Z,11.13
2023-08-25T17:46:02.885Z,10.40
2023-08-25T17:48:32.267Z,11.75
2023-08-25T17:50:59.682Z,12.00
2023-08-25T17:53:26.306Z,10.57
2023-08-25T17:55:56.962Z,10.43
2023-08-25T17:58:25.336Z,14.32
2023-08-25T18:01:01.558Z,10.68
2023-08-25T18:03:28.722Z,16.85
2023-08-25T18:05:55.851Z,11.45
2023-08-25T18:08:22.645Z,12.45
2023-08-25T18:10:49.977Z,10.43
2023-08-25T18:13:16.831Z,11.32
2023-08-25T18:15:43.614Z,12.77
2023-08-25T18:18:10.532Z,13.23
2023-08-25T18:20:37.351Z,10.50
2023-08-25T18:23:04.303Z,14.95
2023-08-25T18:25:32.489Z,17.05
2023-08-25T18:27:59.264Z,10.65
2023-08-25T18:30:26.946Z,12.13
2023-08-25T18:32:54.066Z,9.57
2023-08-25T18:35:22.525Z,10.27
2023-08-25T18:37:49.225Z,8.57
2023-08-25T18:40:16.026Z,9.98
2023-08-25T18:42:42.763Z,9.25
2023-08-25T18:45:09.798Z,11.00
2023-08-25T18:47:36.644Z,10.40
2023-08-25T18:50:03.816Z,10.63
2023-08-25T18:52:30.567Z,6.80
2023-08-25T18:54:57.369Z,9.48
2023-08-25T18:57:26.476Z,9.05
2023-08-25T19:50:54.161Z,11.02
2023-08-25T19:53:20.819Z,8.38
2023-08-25T19:55:48.065Z,11.85
2023-08-25T19:58:14.800Z,11.70
2023-08-25T20:00:41.598Z,10.98
2023-08-25T20:03:11.810Z,9.55
2023-08-25T20:05:39.291Z,8.57
2023-08-25T20:08:06.365Z,10.70
2023-08-25T20:10:33.344Z,9.90
2023-08-25T20:12:59.994Z,9.73
2023-08-25T20:15:27.787Z,12.23
2023-08-25T20:17:55.644Z,10.90
2023-08-25T20:20:22.668Z,10.18
2023-08-25T20:22:50.404Z,10.63
2023-08-25T20:25:17.088Z,7.50
2023-08-25T20:27:43.866Z,9.15
2023-08-25T20:30:11.259Z,7.30
2023-08-25T20:32:37.997Z,10.63
2023-08-25T20:35:05.141Z,7.18
2023-08-25T20:37:31.915Z,13.07
2023-08-25T20:39:58.711Z,14.10
2023-08-25T20:42:25.468Z,17.23
2023-08-25T20:44:52.067Z,10.93
2023-08-25T20:47:18.790Z,8.18
2023-08-25T20:49:45.793Z,7.70
2023-08-25T20:52:12.846Z,6.72
2023-08-25T20:54:39.577Z,8.85
2023-08-25T20:57:07.154Z,8.55
2023-08-25T20:59:34.214Z,9.15
2023-08-25T21:02:00.976Z,7.25
2023-08-25T21:04:27.766Z,6.32
2023-08-25T21:06:54.488Z,8.13
2023-08-25T21:09:21.585Z,8.65
2023-08-25T21:11:48.464Z,7.57
2023-08-25T21:14:15.364Z,7.50
2023-08-25T21:16:42.193Z,7.53
2023-08-25T21:19:10.611Z,7.22
2023-08-25T21:21:40.174Z,6.78
2023-08-25T21:24:08.364Z,8.05
2023-08-25T21:26:37.941Z,6.22
2023-08-25T21:29:07.527Z,9.00
2023-08-25T21:31:39.560Z,11.13
2023-08-25T21:34:07.401Z,8.73
2023-08-25T21:36:34.480Z,6.05
2023-08-25T21:39:01.187Z,7.50
2023-08-25T21:41:28.056Z,8.20
2023-08-25T21:43:54.766Z,6.72
2023-08-25T21:46:26.030Z,7.80
2023-08-25T21:48:52.882Z,6.45
2023-08-25T21:51:19.594Z,4.82
2023-08-25T21:53:46.384Z,7.40
2023-08-25T21:56:13.455Z,5.50
2023-08-25T21:58:40.192Z,9.13
2023-08-25T22:01:10.916Z,4.65
2023-08-25T22:03:38.014Z,9.40
2023-08-25T22:06:05.573Z,6.63
2023-08-25T22:08:32.281Z,10.13
2023-08-25T22:10:59.076Z,7.70
2023-08-25T22:13:26.030Z,14.35
2023-08-25T22:15:52.842Z,7.07
2023-08-25T22:18:19.607Z,6.55
2023-08-25T22:20:56.221Z,9.98
2023-08-25T22:23:22.993Z,7.30
2023-08-25T22:25:49.652Z,8.52
2023-08-25T22:28:16.296Z,7.05
2023-08-25T22:30:43.013Z,6.80
2023-08-25T22:35:39.365Z,7.60
2023-08-25T22:38:06.147Z,5.97
2023-08-25T22:40:32.872Z,4.43
2023-08-25T22:42:59.518Z,9.60
2023-08-25T22:45:26.439Z,10.80
2023-08-25T22:47:53.343Z,5.22
2023-08-25T22:50:20.156Z,5.88
2023-08-25T22:52:46.905Z,4.57
2023-08-25T22:55:13.908Z,9.02
2023-08-25T22:57:40.571Z,8.65
2023-08-25T23:00:09.706Z,8.02
2023-08-25T23:02:36.426Z,6.85
2023-08-25T23:05:05.051Z,10.57
2023-08-25T23:07:31.688Z,9.02
2023-08-25T23:09:58.397Z,7.00
2023-08-25T23:12:25.006Z,6.68
2023-08-25T23:14:51.752Z,6.68
2023-08-25T23:17:18.693Z,6.32
2023-08-25T23:19:45.356Z,9.07
2023-08-25T23:22:13.246Z,3.90
2023-08-25T23:24:44.873Z,4.35
2023-08-25T23:27:14.373Z,8.75
2023-08-25T23:29:41.719Z,12.05
2023-08-25T23:32:08.483Z,6.82
2023-08-25T23:34:36.530Z,6.13
2023-08-25T23:37:04.266Z,5.28
2023-08-25T23:39:31.313Z,4.00
2023-08-25T23:41:58.030Z,5.97
2023-08-25T23:44:28.261Z,5.40
2023-08-25T23:46:55.586Z,11.07
2023-08-25T23:49:23.209Z,12.15
2023-08-25T23:51:50.309Z,7.53
2023-08-25T23:54:18.347Z,4.60
2023-08-25T23:56:45.360Z,5.47
2023-08-25T23:59:12.211Z,10.95
